Time;durP1;ratioP1;P1;durP2;ratioP2;P2;SDS_P1;SDS_P2;PMS_P1;PMS_P2;Temp;Humidity;BMP_temperature;BMP_pressure;BME280_temperature;BME280_humidity;BME280_pressure;Samples;Min_cycle;Max_cycle;Signal;HPM_P1;HPM_P2
2021/12/07 00:01:07;;;;;;;0.53;0.53;;;;;;;;;;5007627;28;20249;-69
2021/12/07 00:03:34;;;;;;;0.20;0.20;;;;;;;;;;5022617;28;20206;-70
2021/12/07 00:06:00;;;;;;;0.20;0.20;;;;;;;;;;5009341;28;21109;-70
2021/12/07 00:08:28;;;;;;;0.40;0.40;;;;;;;;;;5021445;28;20204;-70
2021/12/07 00:10:54;;;;;;;0.20;0.20;;;;;;;;;;5020494;28;20523;-69
2021/12/07 00:13:21;;;;;;;0.30;0.30;;;;;;;;;;5026491;28;20388;-69
2021/12/07 00:15:48;;;;;;;0.20;0.20;;;;;;;;;;5021531;28;20490;-70
2021/12/07 00:18:15;;;;;;;0.30;0.30;;;;;;;;;;5012384;28;20497;-70
2021/12/07 00:20:42;;;;;;;0.73;0.73;;;;;;;;;;5013071;28;20230;-69
2021/12/07 00:23:09;;;;;;;0.20;0.20;;;;;;;;;;5030477;28;20205;-69
2021/12/07 00:25:35;;;;;;;0.20;0.20;;;;;;;;;;5021938;28;20201;-69
2021/12/07 00:28:02;;;;;;;0.80;0.80;;;;;;;;;;5023971;28;20208;-69
2021/12/07 00:30:31;;;;;;;0.20;0.20;;;;;;;;;;5016042;28;20239;-70
2021/12/07 00:33:10;;;;;;;2.43;0.70;;;;;;;;;;5014305;28;20230;-69
2021/12/07 00:35:38;;;;;;;2.17;2.10;;;;;;;;;;5016281;28;20207;-69
2021/12/07 00:38:05;;;;;;;0.20;0.20;;;;;;;;;;5029258;28;20277;-69
2021/12/07 00:40:32;;;;;;;0.30;0.30;;;;;;;;;;5026154;28;20208;-69
2021/12/07 00:42:58;;;;;;;0.60;0.60;;;;;;;;;;5011509;28;20213;-68
2021/12/07 00:45:25;;;;;;;0.30;0.30;;;;;;;;;;5019021;28;20202;-68
2021/12/07 00:47:53;;;;;;;0.27;0.27;;;;;;;;;;5030479;28;20235;-68
2021/12/07 00:50:20;;;;;;;0.30;0.30;;;;;;;;;;5021938;28;20205;-68
2021/12/07 00:52:48;;;;;;;3.33;3.13;;;;;;;;;;5011785;28;20201;-69
2021/12/07 00:55:17;;;;;;;0.33;0.33;;;;;;;;;;5024388;28;20220;-69
2021/12/07 00:57:43;;;;;;;4.10;3.80;;;;;;;;;;5027134;28;20214;-70
2021/12/07 01:00:11;;;;;;;0.30;0.30;;;;;;;;;;5030438;28;20207;-70
2021/12/07 01:02:37;;;;;;;0.57;0.57;;;;;;;;;;5009518;28;20249;-70
2021/12/07 01:05:12;;;;;;;0.20;0.20;;;;;;;;;;5018359;28;20229;-69
2021/12/07 01:07:55;;;;;;;0.20;0.20;;;;;;;;;;5009225;28;21402;-71
2021/12/07 01:26:51;;;;;;;0.27;0.27;;;;;;;;;;5016469;28;20199;-69
2021/12/07 01:29:20;;;;;;;3.37;3.23;;;;;;;;;;5025463;28;20200;-69
2021/12/07 01:31:53;;;;;;;0.80;0.80;;;;;;;;;;5014786;28;20205;-69
2021/12/07 01:34:41;;;;;;;0.30;0.30;;;;;;;;;;5038606;28;20208;-68
2021/12/07 01:37:24;;;;;;;0.20;0.20;;;;;;;;;;5034565;28;20205;-69
2021/12/07 01:40:09;;;;;;;2.10;2.00;;;;;;;;;;5007275;28;20417;-68
2021/12/07 01:43:03;;;;;;;0.30;0.30;;;;;;;;;;5021990;28;20255;-69
2021/12/07 01:51:31;;;;;;;0.23;0.23;;;;;;;;;;4946083;29;20383;-70
2021/12/07 01:59:35;;;;;;;0.23;0.23;;;;;;;;;;5029428;28;20216;-70
2021/12/07 02:02:02;;;;;;;0.30;0.30;;;;;;;;;;5013793;28;20310;-68
2021/12/07 02:04:28;;;;;;;0.30;0.30;;;;;;;;;;5030008;28;20202;-70
2021/12/07 02:06:54;;;;;;;0.30;0.30;;;;;;;;;;5009804;28;20225;-69
2021/12/07 02:09:20;;;;;;;0.20;0.20;;;;;;;;;;5023350;28;20307;-68
2021/12/07 02:11:49;;;;;;;0.30;0.30;;;;;;;;;;5018077;28;20268;-68
2021/12/07 02:14:16;;;;;;;0.30;0.30;;;;;;;;;;5026974;28;20200;-69
2021/12/07 02:16:44;;;;;;;0.67;0.67;;;;;;;;;;5031758;28;20284;-69
2021/12/07 02:19:10;;;;;;;0.30;0.30;;;;;;;;;;5028267;28;20252;-70
2021/12/07 02:21:38;;;;;;;0.30;0.30;;;;;;;;;;5029098;28;20296;-69
2021/12/07 02:24:05;;;;;;;0.30;0.30;;;;;;;;;;5012143;28;20261;-69
2021/12/07 02:26:31;;;;;;;0.30;0.30;;;;;;;;;;5003513;28;20212;-69
2021/12/07 02:28:57;;;;;;;0.30;0.30;;;;;;;;;;5009574;28;20202;-69
2021/12/07 02:31:24;;;;;;;0.43;0.43;;;;;;;;;;5023009;28;20201;-69
2021/12/07 02:33:50;;;;;;;0.20;0.20;;;;;;;;;;5023154;28;20239;-69
2021/12/07 02:36:16;;;;;;;0.30;0.30;;;;;;;;;;5023062;28;20428;-69
2021/12/07 02:38:44;;;;;;;0.20;0.20;;;;;;;;;;5022815;28;20205;-68
2021/12/07 02:41:10;;;;;;;2.20;2.10;;;;;;;;;;5022699;28;20225;-70
2021/12/07 02:43:37;;;;;;;0.20;0.20;;;;;;;;;;5022674;28;20500;-69
2021/12/07 02:46:03;;;;;;;0.50;0.50;;;;;;;;;;5022670;28;20259;-68
2021/12/07 02:48:29;;;;;;;0.20;0.20;;;;;;;;;;5022743;28;20197;-69
2021/12/07 02:50:56;;;;;;;0.30;0.30;;;;;;;;;;5022872;28;20205;-69
2021/12/07 02:53:25;;;;;;;0.27;0.27;;;;;;;;;;5024030;28;20228;-68
2021/12/07 02:55:53;;;;;;;0.20;0.20;;;;;;;;;;5026799;28;20216;-68
2021/12/07 02:58:20;;;;;;;6.13;5.77;;;;;;;;;;5026635;28;20209;-69
2021/12/07 03:00:52;;;;;;;0.63;0.63;;;;;;;;;;5026458;28;20205;-69
2021/12/07 03:03:19;;;;;;;0.20;0.20;;;;;;;;;;5009086;28;20261;-70
2021/12/07 03:05:52;;;;;;;0.80;0.80;;;;;;;;;;5026797;28;20225;-69
2021/12/07 03:08:59;;;;;;;0.50;0.50;;;;;;;;;;5026678;28;20240;-70
2021/12/07 03:27:48;;;;;;;0.47;0.47;;;;;;;;;;5026375;28;20429;-69
2021/12/07 03:30:14;;;;;;;1.70;1.70;;;;;;;;;;5026353;28;20396;-69
2021/12/07 03:32:40;;;;;;;3.90;3.80;;;;;;;;;;5026046;28;20212;-69
2021/12/07 03:35:07;;;;;;;0.63;0.63;;;;;;;;;;5025672;28;20240;-68
2021/12/07 03:37:33;;;;;;;0.30;0.30;;;;;;;;;;5025990;28;20244;-68
2021/12/07 03:40:00;;;;;;;0.30;0.30;;;;;;;;;;5026033;28;20208;-68
2021/12/07 03:42:26;;;;;;;0.20;0.20;;;;;;;;;;5025991;28;20221;-68
2021/12/07 03:44:53;;;;;;;0.30;0.30;;;;;;;;;;5025978;28;20201;-69
2021/12/07 03:47:20;;;;;;;0.30;0.30;;;;;;;;;;5025810;28;20213;-69
2021/12/07 03:49:46;;;;;;;0.30;0.30;;;;;;;;;;5025394;28;20293;-69
2021/12/07 03:52:12;;;;;;;2.90;2.70;;;;;;;;;;5010018;28;20220;-69
2021/12/07 03:54:38;;;;;;;0.97;0.97;;;;;;;;;;5019065;28;20201;-69
2021/12/07 03:57:05;;;;;;;0.30;0.30;;;;;;;;;;5026015;28;20221;-69
2021/12/07 03:59:31;;;;;;;0.30;0.30;;;;;;;;;;5025728;28;20198;-69
2021/12/07 04:01:58;;;;;;;0.47;0.47;;;;;;;;;;5025765;28;20541;-69
2021/12/07 04:04:25;;;;;;;0.43;0.43;;;;;;;;;;5024766;28;20512;-68
2021/12/07 04:06:51;;;;;;;0.20;0.20;;;;;;;;;;5025542;28;20287;-69
2021/12/07 04:09:17;;;;;;;0.27;0.27;;;;;;;;;;5025648;28;20202;-69
2021/12/07 04:11:43;;;;;;;0.43;0.43;;;;;;;;;;5025596;28;20392;-69
2021/12/07 04:14:09;;;;;;;0.37;0.37;;;;;;;;;;5025556;28;20493;-69
2021/12/07 04:16:36;;;;;;;1.17;1.17;;;;;;;;;;5025594;28;20205;-69
2021/12/07 04:19:04;;;;;;;0.30;0.30;;;;;;;;;;5025249;28;20213;-69
2021/12/07 04:21:30;;;;;;;0.30;0.30;;;;;;;;;;5025034;28;20532;-69
2021/12/07 04:23:56;;;;;;;0.47;0.47;;;;;;;;;;5024895;28;20212;-69
2021/12/07 04:26:22;;;;;;;3.83;1.50;;;;;;;;;;5025315;28;20218;-69
2021/12/07 04:28:49;;;;;;;0.30;0.30;;;;;;;;;;5025210;28;20197;-69
2021/12/07 04:31:15;;;;;;;0.30;0.30;;;;;;;;;;5024992;28;20205;-69
2021/12/07 04:33:41;;;;;;;0.30;0.30;;;;;;;;;;5025127;28;20289;-69
2021/12/07 04:36:10;;;;;;;0.40;0.40;;;;;;;;;;5025192;28;20515;-68
2021/12/07 04:38:36;;;;;;;0.20;0.20;;;;;;;;;;5024981;28;20205;-70
2021/12/07 04:41:03;;;;;;;3.10;1.20;;;;;;;;;;5025080;28;20209;-69
2021/12/07 04:43:29;;;;;;;13.43;3.67;;;;;;;;;;5024553;28;20221;-69
2021/12/07 04:46:05;;;;;;;0.30;0.30;;;;;;;;;;5024910;28;20251;-69
2021/12/07 04:59:28;;;;;;;0.20;0.20;;;;;;;;;;5016851;28;20396;-69
2021/12/07 05:01:54;;;;;;;0.30;0.30;;;;;;;;;;5011575;28;20226;-69
2021/12/07 05:04:25;;;;;;;0.30;0.30;;;;;;;;;;5009684;28;20205;-69
2021/12/07 05:06:59;;;;;;;0.30;0.30;;;;;;;;;;5018417;28;20225;-69
2021/12/07 05:12:33;;;;;;;0.30;0.30;;;;;;;;;;5003999;28;20236;-69
2021/12/07 05:15:05;;;;;;;0.30;0.30;;;;;;;;;;5009247;28;20237;-68
2021/12/07 05:18:03;;;;;;;0.20;0.20;;;;;;;;;;5010476;28;20224;-69
2021/12/07 05:39:38;;;;;;;0.30;0.30;;;;;;;;;;5015915;28;20228;-69
2021/12/07 05:42:04;;;;;;;0.30;0.30;;;;;;;;;;5023581;28;20225;-70
2021/12/07 05:44:31;;;;;;;0.30;0.30;;;;;;;;;;5023997;28;20501;-70
2021/12/07 05:46:57;;;;;;;0.30;0.30;;;;;;;;;;5023471;28;20202;-70
2021/12/07 05:49:26;;;;;;;0.60;0.60;;;;;;;;;;5023540;28;20205;-69
2021/12/07 05:51:52;;;;;;;1.30;1.30;;;;;;;;;;5023817;28;20527;-69
2021/12/07 05:54:18;;;;;;;3.27;3.07;;;;;;;;;;5023638;28;20201;-69
2021/12/07 05:56:46;;;;;;;0.60;0.60;;;;;;;;;;5023558;28;20216;-69
2021/12/07 05:59:12;;;;;;;0.30;0.30;;;;;;;;;;5023542;28;20235;-69
2021/12/07 06:01:38;;;;;;;0.70;0.70;;;;;;;;;;5023585;28;20252;-68
2021/12/07 06:04:04;;;;;;;0.30;0.30;;;;;;;;;;5023495;28;20202;-68
2021/12/07 06:06:31;;;;;;;0.30;0.30;;;;;;;;;;5023617;28;20225;-68
2021/12/07 06:08:57;;;;;;;13.80;6.13;;;;;;;;;;5023316;28;20208;-69
2021/12/07 06:11:24;;;;;;;0.27;0.27;;;;;;;;;;5023221;28;20228;-68
2021/12/07 06:13:51;;;;;;;0.30;0.30;;;;;;;;;;5023275;28;20197;-68
2021/12/07 06:16:18;;;;;;;0.50;0.50;;;;;;;;;;5023275;28;20205;-68
2021/12/07 06:18:44;;;;;;;0.30;0.30;;;;;;;;;;5023263;28;20509;-68
2021/12/07 06:21:11;;;;;;;0.20;0.20;;;;;;;;;;5023201;28;20517;-69
2021/12/07 06:23:37;;;;;;;0.30;0.30;;;;;;;;;;5022926;28;20224;-69
2021/12/07 06:26:04;;;;;;;0.30;0.30;;;;;;;;;;5023349;28;20205;-69
2021/12/07 06:28:30;;;;;;;0.93;0.93;;;;;;;;;;5022808;28;20202;-69
2021/12/07 06:30:58;;;;;;;0.30;0.30;;;;;;;;;;5023229;28;20205;-68
2021/12/07 06:33:25;;;;;;;0.30;0.30;;;;;;;;;;5023050;28;20424;-69
2021/12/07 06:35:56;;;;;;;0.30;0.30;;;;;;;;;;5022933;28;20205;-68
2021/12/07 06:38:22;;;;;;;0.33;0.33;;;;;;;;;;5022590;28;20224;-68
2021/12/07 06:40:49;;;;;;;0.30;0.30;;;;;;;;;;5023015;28;20205;-68
2021/12/07 06:43:16;;;;;;;1.37;1.37;;;;;;;;;;5022907;28;20263;-69
2021/12/07 06:45:42;;;;;;;0.30;0.30;;;;;;;;;;5022765;28;20201;-69
2021/12/07 06:48:09;;;;;;;1.23;1.17;;;;;;;;;;5022773;28;20217;-70
2021/12/07 06:50:36;;;;;;;1.33;1.23;;;;;;;;;;5023027;28;20513;-70
2021/12/07 06:53:02;;;;;;;0.50;0.50;;;;;;;;;;5023036;28;20267;-69
2021/12/07 06:55:30;;;;;;;1.70;1.67;;;;;;;;;;5022894;28;20374;-68
2021/12/07 06:57:56;;;;;;;0.37;0.37;;;;;;;;;;5022991;28;20223;-69
2021/12/07 07:00:23;;;;;;;0.30;0.30;;;;;;;;;;5020532;28;20213;-69
2021/12/07 07:02:49;;;;;;;0.70;0.70;;;;;;;;;;5018720;28;20217;-69
2021/12/07 07:05:18;;;;;;;0.30;0.30;;;;;;;;;;5020915;28;20417;-68
2021/12/07 07:07:45;;;;;;;1.17;1.17;;;;;;;;;;5011091;28;20555;-69
2021/12/07 07:10:12;;;;;;;0.30;0.30;;;;;;;;;;5021404;28;20205;-69
2021/12/07 07:12:38;;;;;;;0.30;0.30;;;;;;;;;;5008221;28;20205;-69
2021/12/07 07:15:05;;;;;;;0.37;0.37;;;;;;;;;;5016843;28;20216;-68
2021/12/07 07:17:31;;;;;;;1.83;1.80;;;;;;;;;;5005615;28;20203;-68
2021/12/07 07:19:58;;;;;;;0.73;0.73;;;;;;;;;;5021953;28;20213;-68
2021/12/07 07:22:25;;;;;;;0.40;0.40;;;;;;;;;;5022346;28;20229;-68
2021/12/07 07:24:51;;;;;;;0.33;0.33;;;;;;;;;;5021321;28;20209;-69
2021/12/07 07:27:19;;;;;;;0.83;0.83;;;;;;;;;;5020612;28;20201;-69
2021/12/07 07:29:45;;;;;;;0.30;0.30;;;;;;;;;;5022254;28;20247;-68
2021/12/07 07:32:11;;;;;;;0.97;0.97;;;;;;;;;;5022652;28;20273;-69
2021/12/07 07:34:38;;;;;;;0.30;0.30;;;;;;;;;;5022354;28;20201;-68
2021/12/07 07:37:04;;;;;;;0.53;0.53;;;;;;;;;;5022175;28;20228;-68
2021/12/07 07:39:32;;;;;;;0.30;0.30;;;;;;;;;;5022314;28;20209;-68
2021/12/07 07:41:58;;;;;;;2.17;2.00;;;;;;;;;;5025653;28;20209;-68
2021/12/07 07:44:24;;;;;;;0.50;0.50;;;;;;;;;;5025558;28;20276;-69
2021/12/07 07:46:50;;;;;;;0.33;0.33;;;;;;;;;;5025776;28;20221;-69
2021/12/07 07:49:17;;;;;;;0.30;0.30;;;;;;;;;;5025731;28;20213;-69
2021/12/07 07:51:43;;;;;;;0.30;0.30;;;;;;;;;;5026082;28;20275;-69
2021/12/07 07:54:09;;;;;;;0.30;0.30;;;;;;;;;;5025882;28;20427;-69
2021/12/07 07:56:37;;;;;;;0.30;0.30;;;;;;;;;;5025886;28;20228;-69
2021/12/07 07:59:04;;;;;;;0.90;0.90;;;;;;;;;;5025770;28;20229;-69
2021/12/07 08:01:31;;;;;;;0.30;0.30;;;;;;;;;;5015498;28;20229;-69
2021/12/07 08:03:57;;;;;;;0.30;0.30;;;;;;;;;;5013137;28;20241;-69
2021/12/07 08:06:24;;;;;;;0.30;0.30;;;;;;;;;;5025438;28;20225;-70
2021/12/07 08:08:50;;;;;;;0.30;0.30;;;;;;;;;;5025650;28;20201;-69
2021/12/07 08:11:16;;;;;;;0.30;0.30;;;;;;;;;;5025152;28;20252;-67
2021/12/07 08:13:44;;;;;;;2.97;2.87;;;;;;;;;;5021365;28;20270;-69
2021/12/07 08:16:15;;;;;;;0.30;0.30;;;;;;;;;;5005428;28;20276;-68
2021/12/07 08:18:42;;;;;;;0.77;0.77;;;;;;;;;;5009132;28;20201;-69
2021/12/07 08:21:08;;;;;;;0.57;0.57;;;;;;;;;;5024882;28;20205;-68
2021/12/07 08:23:35;;;;;;;0.20;0.20;;;;;;;;;;5022595;28;20267;-68
2021/12/07 08:26:01;;;;;;;0.37;0.37;;;;;;;;;;5005528;28;20512;-69
2021/12/07 08:28:28;;;;;;;0.30;0.30;;;;;;;;;;5016409;28;20209;-70
2021/12/07 08:30:55;;;;;;;0.73;0.73;;;;;;;;;;5025060;28;20201;-69
2021/12/07 08:33:21;;;;;;;0.30;0.30;;;;;;;;;;5024899;28;20207;-69
2021/12/07 08:35:48;;;;;;;0.33;0.33;;;;;;;;;;5025068;28;20513;-68
2021/12/07 08:38:14;;;;;;;0.30;0.30;;;;;;;;;;5024607;28;20407;-69
2021/12/07 08:40:42;;;;;;;2.10;2.00;;;;;;;;;;5024795;28;20263;-68
2021/12/07 08:43:12;;;;;;;0.33;0.33;;;;;;;;;;5016368;28;20288;-68
2021/12/07 08:45:38;;;;;;;0.30;0.30;;;;;;;;;;5017344;28;20205;-69
2021/12/07 08:48:06;;;;;;;0.60;0.60;;;;;;;;;;5017282;28;20205;-70
2021/12/07 08:50:33;;;;;;;0.30;0.30;;;;;;;;;;5013849;28;20506;-69
2021/12/07 08:53:03;;;;;;;0.30;0.30;;;;;;;;;;5007975;28;20201;-69
2021/12/07 09:00:59;;;;;;;7.37;6.97;;;;;;;;;;5009876;28;20280;-68
2021/12/07 09:03:28;;;;;;;0.27;0.27;;;;;;;;;;5008809;28;20237;-69
2021/12/07 09:05:55;;;;;;;0.30;0.30;;;;;;;;;;5023014;28;20232;-69
2021/12/07 09:08:21;;;;;;;0.40;0.40;;;;;;;;;;5019408;28;20489;-69
2021/12/07 09:10:47;;;;;;;0.30;0.30;;;;;;;;;;5011060;28;20215;-70
2021/12/07 09:13:14;;;;;;;0.30;0.30;;;;;;;;;;5006604;28;20202;-69
2021/12/07 09:15:40;;;;;;;0.40;0.40;;;;;;;;;;5009837;28;20251;-69
2021/12/07 09:21:03;;;;;;;0.30;0.30;;;;;;;;;;5017173;28;20228;-70
2021/12/07 09:23:29;;;;;;;0.20;0.20;;;;;;;;;;5024255;28;20253;-68
2021/12/07 09:25:55;;;;;;;0.30;0.30;;;;;;;;;;5023935;28;20575;-69
2021/12/07 09:28:22;;;;;;;0.30;0.30;;;;;;;;;;5024285;28;20431;-70
2021/12/07 09:30:51;;;;;;;0.50;0.50;;;;;;;;;;5023933;28;20248;-71
2021/12/07 09:33:17;;;;;;;0.30;0.30;;;;;;;;;;5023956;28;20240;-69
2021/12/07 09:35:44;;;;;;;0.30;0.30;;;;;;;;;;5017963;28;20492;-68
2021/12/07 09:38:12;;;;;;;0.33;0.33;;;;;;;;;;5008504;28;20501;-71
2021/12/07 09:40:41;;;;;;;1.13;1.13;;;;;;;;;;5015604;28;20205;-68
2021/12/07 09:43:08;;;;;;;0.30;0.30;;;;;;;;;;5021479;28;20298;-68
2021/12/07 09:45:35;;;;;;;0.37;0.37;;;;;;;;;;5023789;28;20228;-68
2021/12/07 09:48:02;;;;;;;0.20;0.20;;;;;;;;;;5016400;28;20202;-67
2021/12/07 09:50:29;;;;;;;2.73;2.63;;;;;;;;;;5017026;28;20209;-68
2021/12/07 09:52:56;;;;;;;0.40;0.40;;;;;;;;;;5023543;28;20205;-69
2021/12/07 09:55:25;;;;;;;0.30;0.30;;;;;;;;;;5011844;28;20248;-68
2021/12/07 09:57:52;;;;;;;12.10;6.53;;;;;;;;;;5003772;28;20206;-68
2021/12/07 10:00:21;;;;;;;3.50;2.83;;;;;;;;;;5022868;28;20216;-69
2021/12/07 10:02:47;;;;;;;1.17;1.17;;;;;;;;;;5022720;28;20205;-67
2021/12/07 10:05:17;;;;;;;0.40;0.40;;;;;;;;;;5022905;28;20228;-67
2021/12/07 10:07:43;;;;;;;0.63;0.63;;;;;;;;;;5009625;28;20269;-68
2021/12/07 10:10:11;;;;;;;8.30;7.43;;;;;;;;;;5007129;28;20209;-67
2021/12/07 10:12:40;;;;;;;0.30;0.30;;;;;;;;;;5004956;28;20516;-67
2021/12/07 10:15:07;;;;;;;0.30;0.30;;;;;;;;;;5022787;28;20205;-68
2021/12/07 10:17:36;;;;;;;0.30;0.30;;;;;;;;;;5023000;28;20228;-68
2021/12/07 10:20:21;;;;;;;4.27;1.17;;;;;;;;;;5023014;28;20506;-67
2021/12/07 10:22:51;;;;;;;0.50;0.50;;;;;;;;;;5023585;28;20474;-67
2021/12/07 10:25:25;;;;;;;0.30;0.30;;;;;;;;;;5023006;28;20225;-68
2021/12/07 10:27:53;;;;;;;1.53;1.43;;;;;;;;;;5023080;28;20193;-66
2021/12/07 10:30:21;;;;;;;0.63;0.63;;;;;;;;;;5022788;28;20511;-66
2021/12/07 10:32:57;;;;;;;0.60;0.60;;;;;;;;;;5023076;28;20209;-68
2021/12/07 10:35:27;;;;;;;2.00;0.73;;;;;;;;;;5003439;28;20380;-67
2021/12/07 10:38:06;;;;;;;0.30;0.30;;;;;;;;;;5013667;28;20248;-67
2021/12/07 10:40:32;;;;;;;0.30;0.30;;;;;;;;;;5022864;28;20261;-67
2021/12/07 10:43:00;;;;;;;0.30;0.30;;;;;;;;;;5023041;28;20204;-68
2021/12/07 10:45:27;;;;;;;0.87;0.87;;;;;;;;;;5022879;28;20225;-67
2021/12/07 10:47:54;;;;;;;0.20;0.20;;;;;;;;;;5022677;28;20228;-67
2021/12/07 10:50:20;;;;;;;3.67;3.50;;;;;;;;;;5022976;28;20461;-68
2021/12/07 10:52:47;;;;;;;0.30;0.30;;;;;;;;;;5022718;28;20272;-66
2021/12/07 10:55:15;;;;;;;0.50;0.50;;;;;;;;;;5022165;28;20193;-67
2021/12/07 10:57:43;;;;;;;4.50;4.27;;;;;;;;;;5017999;28;20201;-67
2021/12/07 11:00:15;;;;;;;1.57;1.57;;;;;;;;;;5022164;28;20201;-66
2021/12/07 11:02:43;;;;;;;0.30;0.30;;;;;;;;;;5022679;28;20193;-68
2021/12/07 11:05:11;;;;;;;3.23;2.43;;;;;;;;;;5022127;28;20229;-66
2021/12/07 11:07:38;;;;;;;2.97;2.87;;;;;;;;;;5022681;28;20244;-66
2021/12/07 11:10:08;;;;;;;0.30;0.30;;;;;;;;;;5022737;28;20375;-67
2021/12/07 11:12:40;;;;;;;1.63;1.53;;;;;;;;;;5022634;28;20199;-67
2021/12/07 11:15:14;;;;;;;1.23;1.23;;;;;;;;;;5024375;28;20442;-70
2021/12/07 11:17:42;;;;;;;0.40;0.40;;;;;;;;;;5017688;28;20219;-66
2021/12/07 11:20:09;;;;;;;0.30;0.30;;;;;;;;;;5026040;28;20217;-66
2021/12/07 11:22:37;;;;;;;1.00;0.67;;;;;;;;;;5026421;28;20219;-66
2021/12/07 11:25:04;;;;;;;0.20;0.20;;;;;;;;;;5026256;28;20217;-68
2021/12/07 11:30:15;;;;;;;0.40;0.40;;;;;;;;;;5025837;28;20212;-68
2021/12/07 11:32:44;;;;;;;0.20;0.20;;;;;;;;;;5026164;28;20244;-67
2021/12/07 11:35:13;;;;;;;0.23;0.23;;;;;;;;;;5020847;28;20501;-67
2021/12/07 11:37:40;;;;;;;0.30;0.30;;;;;;;;;;5026218;28;20228;-68
2021/12/07 11:40:07;;;;;;;0.63;0.63;;;;;;;;;;5006265;28;20205;-69
2021/12/07 11:42:37;;;;;;;1.63;1.53;;;;;;;;;;5006568;28;20206;-68
2021/12/07 11:45:06;;;;;;;0.27;0.27;;;;;;;;;;5025703;28;20217;-69
2021/12/07 11:47:33;;;;;;;0.30;0.30;;;;;;;;;;5025621;28;20201;-68
2021/12/07 11:50:03;;;;;;;0.63;0.63;;;;;;;;;;5024260;28;20292;-68
2021/12/07 11:52:29;;;;;;;0.20;0.20;;;;;;;;;;5015006;28;20278;-67
2021/12/07 11:54:55;;;;;;;0.50;0.50;;;;;;;;;;5013789;28;20207;-67
2021/12/07 11:57:22;;;;;;;0.67;0.63;;;;;;;;;;5016384;28;20493;-67
2021/12/07 11:59:49;;;;;;;0.20;0.20;;;;;;;;;;5006029;28;20210;-67
2021/12/07 12:02:18;;;;;;;0.30;0.30;;;;;;;;;;5006216;28;20337;-67
2021/12/07 12:04:44;;;;;;;0.40;0.40;;;;;;;;;;5006113;28;20222;-68
2021/12/07 12:07:12;;;;;;;6.03;1.70;;;;;;;;;;5005604;28;20206;-67
2021/12/07 12:09:44;;;;;;;0.30;0.30;;;;;;;;;;5014735;28;20267;-66
2021/12/07 12:12:14;;;;;;;0.30;0.30;;;;;;;;;;5025581;28;20197;-66
2021/12/07 12:14:45;;;;;;;0.20;0.20;;;;;;;;;;5025580;28;20481;-66
2021/12/07 12:17:13;;;;;;;2.30;2.10;;;;;;;;;;5024821;28;20570;-66
2021/12/07 12:19:43;;;;;;;0.53;0.53;;;;;;;;;;5024947;28;20217;-66
2021/12/07 12:22:15;;;;;;;0.83;0.83;;;;;;;;;;5024861;28;20206;-66
2021/12/07 12:24:45;;;;;;;8.90;3.97;;;;;;;;;;5025339;28;20236;-66
2021/12/07 12:27:12;;;;;;;0.30;0.30;;;;;;;;;;5023614;28;20207;-67
2021/12/07 12:29:40;;;;;;;0.40;0.40;;;;;;;;;;5012415;28;20548;-66
2021/12/07 12:32:07;;;;;;;3.60;1.07;;;;;;;;;;5007084;28;20210;-66
2021/12/07 12:34:34;;;;;;;0.67;0.67;;;;;;;;;;5019181;28;20396;-65
2021/12/07 12:37:03;;;;;;;0.30;0.30;;;;;;;;;;5025069;28;20201;-67
2021/12/07 12:39:45;;;;;;;1.50;1.43;;;;;;;;;;5016705;28;20244;-66
2021/12/07 12:42:15;;;;;;;7.80;7.03;;;;;;;;;;5024818;28;20212;-65
2021/12/07 12:44:41;;;;;;;0.40;0.40;;;;;;;;;;5024541;28;20284;-66
2021/12/07 12:47:08;;;;;;;0.50;0.50;;;;;;;;;;5024830;28;20232;-64
2021/12/07 12:49:38;;;;;;;0.30;0.30;;;;;;;;;;5024432;28;20209;-66
2021/12/07 12:52:04;;;;;;;0.30;0.30;;;;;;;;;;5024572;28;20264;-67
2021/12/07 12:54:38;;;;;;;1.53;1.47;;;;;;;;;;5023677;28;20197;-68
2021/12/07 12:57:09;;;;;;;2.90;2.30;;;;;;;;;;5024653;28;20381;-67
2021/12/07 12:59:37;;;;;;;0.30;0.30;;;;;;;;;;5024481;28;20198;-67
2021/12/07 13:02:03;;;;;;;1.70;1.70;;;;;;;;;;5024557;28;20209;-66
2021/12/07 13:04:31;;;;;;;0.30;0.30;;;;;;;;;;5023911;28;20300;-67
2021/12/07 13:07:23;;;;;;;1.53;1.17;;;;;;;;;;5024257;28;20410;-67
2021/12/07 13:09:55;;;;;;;2.00;1.90;;;;;;;;;;5009754;28;20193;-68
2021/12/07 13:12:23;;;;;;;0.23;0.23;;;;;;;;;;5024440;28;20193;-67
2021/12/07 13:14:58;;;;;;;0.30;0.30;;;;;;;;;;5024136;28;20350;-67
2021/12/07 13:17:26;;;;;;;0.30;0.30;;;;;;;;;;5024345;28;20246;-67
2021/12/07 13:20:01;;;;;;;1.13;1.07;;;;;;;;;;5023691;28;20213;-67
2021/12/07 13:22:33;;;;;;;0.30;0.30;;;;;;;;;;5023360;28;20197;-66
2021/12/07 13:25:04;;;;;;;0.43;0.43;;;;;;;;;;5024124;28;20267;-66
2021/12/07 13:27:32;;;;;;;1.13;1.10;;;;;;;;;;5024294;28;20189;-67
2021/12/07 13:29:58;;;;;;;0.37;0.37;;;;;;;;;;5024076;28;20205;-66
2021/12/07 13:32:25;;;;;;;0.27;0.27;;;;;;;;;;5024071;28;20248;-66
2021/12/07 13:35:00;;;;;;;3.03;2.83;;;;;;;;;;5024043;28;20580;-67
2021/12/07 13:37:43;;;;;;;0.47;0.47;;;;;;;;;;5023259;28;20201;-68
2021/12/07 13:40:17;;;;;;;2.57;2.47;;;;;;;;;;5018217;28;20190;-68
2021/12/07 13:42:48;;;;;;;0.30;0.30;;;;;;;;;;5024003;28;20193;-66
2021/12/07 13:45:17;;;;;;;0.20;0.20;;;;;;;;;;5023783;28;20430;-66
2021/12/07 13:47:44;;;;;;;0.30;0.30;;;;;;;;;;5023637;28;20205;-66
2021/12/07 13:50:12;;;;;;;1.27;1.20;;;;;;;;;;5016992;28;20480;-66
2021/12/07 13:52:40;;;;;;;0.30;0.30;;;;;;;;;;5023997;28;20205;-66
2021/12/07 13:55:09;;;;;;;0.80;0.80;;;;;;;;;;5023340;28;20244;-66
2021/12/07 13:57:36;;;;;;;0.40;0.40;;;;;;;;;;5023501;28;20204;-68
2021/12/07 14:00:07;;;;;;;1.53;1.43;;;;;;;;;;5023439;28;20252;-66
2021/12/07 14:02:34;;;;;;;0.73;0.73;;;;;;;;;;5023702;28;20489;-67
2021/12/07 14:05:11;;;;;;;2.50;2.37;;;;;;;;;;5023169;28;20233;-66
2021/12/07 14:07:38;;;;;;;0.20;0.20;;;;;;;;;;5023277;28;20196;-66
2021/12/07 14:10:05;;;;;;;0.83;0.83;;;;;;;;;;5023163;28;20206;-65
2021/12/07 14:12:32;;;;;;;0.20;0.20;;;;;;;;;;5023097;28;20244;-66
2021/12/07 14:15:07;;;;;;;1.07;1.07;;;;;;;;;;5023421;28;20193;-67
2021/12/07 14:17:40;;;;;;;0.87;0.87;;;;;;;;;;5023464;28;20480;-67
2021/12/07 14:20:06;;;;;;;0.30;0.30;;;;;;;;;;5022910;28;20443;-66
2021/12/07 14:22:33;;;;;;;3.07;2.97;;;;;;;;;;5023289;28;20504;-67
2021/12/07 14:24:59;;;;;;;0.37;0.37;;;;;;;;;;5022867;28;20249;-66
2021/12/07 14:27:26;;;;;;;0.20;0.20;;;;;;;;;;5023312;28;20204;-66
2021/12/07 14:29:53;;;;;;;0.20;0.20;;;;;;;;;;5023446;28;20205;-66
2021/12/07 14:32:20;;;;;;;0.37;0.37;;;;;;;;;;5023104;28;20202;-66
2021/12/07 14:34:47;;;;;;;0.63;0.63;;;;;;;;;;5023106;28;20239;-67
2021/12/07 14:37:13;;;;;;;0.30;0.30;;;;;;;;;;5023189;28;20276;-66
2021/12/07 14:39:41;;;;;;;0.30;0.30;;;;;;;;;;5022877;28;20224;-66
2021/12/07 14:42:08;;;;;;;3.87;3.67;;;;;;;;;;5022910;28;20202;-67
2021/12/07 14:44:35;;;;;;;0.30;0.30;;;;;;;;;;5023054;28;20209;-65
2021/12/07 14:47:04;;;;;;;0.37;0.37;;;;;;;;;;5023037;28;20212;-65
2021/12/07 14:49:32;;;;;;;1.20;1.20;;;;;;;;;;5024271;28;20232;-65
2021/12/07 14:51:59;;;;;;;0.30;0.30;;;;;;;;;;5027235;28;20206;-65
2021/12/07 14:54:26;;;;;;;1.33;1.33;;;;;;;;;;5027103;28;20205;-66
2021/12/07 14:56:52;;;;;;;1.23;1.13;;;;;;;;;;5026929;28;20209;-67
2021/12/07 14:59:20;;;;;;;2.77;1.33;;;;;;;;;;5026929;28;20205;-66
2021/12/07 15:01:47;;;;;;;0.23;0.23;;;;;;;;;;5018134;28;20272;-65
2021/12/07 15:04:15;;;;;;;1.57;1.57;;;;;;;;;;5026036;28;20213;-67
2021/12/07 15:06:44;;;;;;;0.30;0.30;;;;;;;;;;5026673;28;20283;-65
2021/12/07 15:09:11;;;;;;;0.80;0.80;;;;;;;;;;5026491;28;20399;-66
2021/12/07 15:11:38;;;;;;;0.20;0.20;;;;;;;;;;5026559;28;20496;-65
2021/12/07 15:14:05;;;;;;;0.20;0.20;;;;;;;;;;5025874;28;20201;-66
2021/12/07 15:16:32;;;;;;;1.43;1.43;;;;;;;;;;5020382;28;20209;-66
2021/12/07 15:18:58;;;;;;;1.23;1.13;;;;;;;;;;5020901;28;20249;-66
2021/12/07 15:21:28;;;;;;;0.20;0.20;;;;;;;;;;5014973;28;20221;-67
2021/12/07 15:23:57;;;;;;;0.27;0.27;;;;;;;;;;5006479;28;20272;-66
2021/12/07 15:26:24;;;;;;;0.30;0.30;;;;;;;;;;5025610;28;20225;-65
2021/12/07 15:28:55;;;;;;;0.30;0.30;;;;;;;;;;5026506;28;20209;-66
2021/12/07 15:31:21;;;;;;;0.20;0.20;;;;;;;;;;5026423;28;20206;-66
2021/12/07 15:33:49;;;;;;;0.30;0.30;;;;;;;;;;5026333;28;20201;-67
2021/12/07 15:36:16;;;;;;;0.30;0.30;;;;;;;;;;5026122;28;20197;-68
2021/12/07 15:38:42;;;;;;;0.60;0.60;;;;;;;;;;5026332;28;20485;-67
2021/12/07 15:41:10;;;;;;;0.20;0.20;;;;;;;;;;5026188;28;20225;-66
2021/12/07 15:43:39;;;;;;;0.30;0.30;;;;;;;;;;5025916;28;20205;-67
2021/12/07 15:46:06;;;;;;;0.60;0.60;;;;;;;;;;5024784;28;20225;-65
2021/12/07 15:48:33;;;;;;;0.20;0.20;;;;;;;;;;5017142;28;20229;-66
2021/12/07 15:51:01;;;;;;;0.40;0.40;;;;;;;;;;5012733;28;20256;-66
2021/12/07 15:53:28;;;;;;;1.03;1.03;;;;;;;;;;5006428;28;20206;-64
2021/12/07 15:55:54;;;;;;;0.30;0.30;;;;;;;;;;5020961;28;20234;-65
2021/12/07 15:58:24;;;;;;;0.27;0.27;;;;;;;;;;5025918;28;20205;-66
2021/12/07 16:00:51;;;;;;;0.30;0.30;;;;;;;;;;5024510;28;20212;-66
2021/12/07 16:03:19;;;;;;;0.20;0.20;;;;;;;;;;5025515;28;20221;-65
2021/12/07 16:05:46;;;;;;;0.20;0.20;;;;;;;;;;5025548;28;20229;-66
2021/12/07 16:08:13;;;;;;;0.47;0.47;;;;;;;;;;5025649;28;20201;-65
2021/12/07 16:10:40;;;;;;;0.37;0.37;;;;;;;;;;5025118;28;20341;-65
2021/12/07 16:13:08;;;;;;;0.20;0.20;;;;;;;;;;5016798;28;20529;-66
2021/12/07 16:15:36;;;;;;;0.30;0.30;;;;;;;;;;5013158;28;20228;-66
2021/12/07 16:18:03;;;;;;;0.20;0.20;;;;;;;;;;5025231;28;20209;-65